sensor_id;sensor_type;location;lat;lon;timestamp;P1;durP1;ratioP1;P2;durP2;ratioP2
10063;SDS011;5071;52.360;13.134;2023-07-29T00:02:24;9.27;;;8.33;;
10063;SDS011;5071;52.360;13.134;2023-07-29T00:07:26;8.23;;;7.40;;
10063;SDS011;5071;52.360;13.134;2023-07-29T00:12:30;9.20;;;8.40;;
10063;SDS011;5071;52.360;13.134;2023-07-29T00:17:32;11.83;;;10.33;;
10063;SDS011;5071;52.360;13.134;2023-07-29T00:22:34;7.70;;;7.10;;
10063;SDS011;5071;52.360;13.134;2023-07-29T00:27:38;7.60;;;6.77;;
10063;SDS011;5071;52.360;13.134;2023-07-29T00:32:40;7.90;;;7.20;;
10063;SDS011;5071;52.360;13.134;2023-07-29T00:37:43;8.83;;;8.03;;
10063;SDS011;5071;52.360;13.134;2023-07-29T00:42:46;7.37;;;6.77;;
10063;SDS011;5071;52.360;13.134;2023-07-29T00:47:48;7.03;;;6.33;;
10063;SDS011;5071;52.360;13.134;2023-07-29T00:52:50;8.43;;;7.53;;
10063;SDS011;5071;52.360;13.134;2023-07-29T00:57:53;7.03;;;6.40;;
10063;SDS011;5071;52.360;13.134;2023-07-29T01:02:56;7.10;;;6.50;;
10063;SDS011;5071;52.360;13.134;2023-07-29T01:07:59;6.73;;;6.13;;
10063;SDS011;5071;52.360;13.134;2023-07-29T01:13:12;6.17;;;5.67;;
10063;SDS011;5071;52.360;13.134;2023-07-29T01:18:21;7.63;;;6.80;;
10063;SDS011;5071;52.360;13.134;2023-07-29T01:23:26;8.83;;;7.93;;
10063;SDS011;5071;52.360;13.134;2023-07-29T01:28:31;6.37;;;5.83;;
10063;SDS011;5071;52.360;13.134;2023-07-29T01:33:35;6.43;;;5.70;;
10063;SDS011;5071;52.360;13.134;2023-07-29T01:38:45;5.67;;;5.17;;
10063;SDS011;5071;52.360;13.134;2023-07-29T01:43:49;7.27;;;6.57;;
10063;SDS011;5071;52.360;13.134;2023-07-29T01:48:52;6.93;;;6.33;;
10063;SDS011;5071;52.360;13.134;2023-07-29T01:53:56;7.17;;;5.97;;
10063;SDS011;5071;52.360;13.134;2023-07-29T01:58:58;7.13;;;6.40;;
10063;SDS011;5071;52.360;13.134;2023-07-29T02:03:59;8.67;;;6.40;;
10063;SDS011;5071;52.360;13.134;2023-07-29T02:09:02;6.77;;;6.07;;
10063;SDS011;5071;52.360;13.134;2023-07-29T02:14:04;7.37;;;6.27;;
10063;SDS011;5071;52.360;13.134;2023-07-29T02:19:07;7.00;;;6.33;;
10063;SDS011;5071;52.360;13.134;2023-07-29T02:24:10;6.77;;;5.47;;
10063;SDS011;5071;52.360;13.134;2023-07-29T02:29:12;7.90;;;6.17;;
10063;SDS011;5071;52.360;13.134;2023-07-29T02:34:14;7.63;;;6.90;;
10063;SDS011;5071;52.360;13.134;2023-07-29T02:39:17;6.67;;;6.07;;
10063;SDS011;5071;52.360;13.134;2023-07-29T02:44:19;6.53;;;6.00;;
10063;SDS011;5071;52.360;13.134;2023-07-29T02:49:21;6.57;;;5.97;;
10063;SDS011;5071;52.360;13.134;2023-07-29T02:54:25;6.97;;;6.30;;
10063;SDS011;5071;52.360;13.134;2023-07-29T02:59:27;8.90;;;7.60;;
10063;SDS011;5071;52.360;13.134;2023-07-29T03:04:29;6.87;;;6.17;;
10063;SDS011;5071;52.360;13.134;2023-07-29T03:09:36;5.40;;;4.90;;
10063;SDS011;5071;52.360;13.134;2023-07-29T03:14:38;7.77;;;5.90;;
10063;SDS011;5071;52.360;13.134;2023-07-29T03:19:39;6.60;;;5.97;;
10063;SDS011;5071;52.360;13.134;2023-07-29T03:24:43;5.93;;;5.43;;
10063;SDS011;5071;52.360;13.134;2023-07-29T03:29:45;7.20;;;6.60;;
10063;SDS011;5071;52.360;13.134;2023-07-29T03:34:47;6.87;;;6.17;;
10063;SDS011;5071;52.360;13.134;2023-07-29T03:39:50;7.40;;;6.70;;
10063;SDS011;5071;52.360;13.134;2023-07-29T03:44:52;8.20;;;7.40;;
10063;SDS011;5071;52.360;13.134;2023-07-29T03:49:55;7.50;;;6.90;;
10063;SDS011;5071;52.360;13.134;2023-07-29T03:54:58;7.97;;;7.27;;
10063;SDS011;5071;52.360;13.134;2023-07-29T04:00:01;8.30;;;7.50;;
10063;SDS011;5071;52.360;13.134;2023-07-29T04:05:03;7.70;;;6.90;;
10063;SDS011;5071;52.360;13.134;2023-07-29T04:10:08;6.97;;;6.27;;
10063;SDS011;5071;52.360;13.134;2023-07-29T04:15:10;6.87;;;6.30;;
10063;SDS011;5071;52.360;13.134;2023-07-29T04:20:13;8.03;;;7.30;;
10063;SDS011;5071;52.360;13.134;2023-07-29T04:25:16;7.40;;;6.77;;
10063;SDS011;5071;52.360;13.134;2023-07-29T04:30:18;6.93;;;6.37;;
10063;SDS011;5071;52.360;13.134;2023-07-29T04:35:20;7.47;;;6.20;;
10063;SDS011;5071;52.360;13.134;2023-07-29T04:40:23;7.73;;;7.03;;
10063;SDS011;5071;52.360;13.134;2023-07-29T04:45:27;7.70;;;7.10;;
10063;SDS011;5071;52.360;13.134;2023-07-29T04:50:29;6.17;;;5.67;;
10063;SDS011;5071;52.360;13.134;2023-07-29T04:55:32;4.40;;;4.00;;
10063;SDS011;5071;52.360;13.134;2023-07-29T05:00:34;4.45;;;4.05;;
10063;SDS011;5071;52.360;13.134;2023-07-29T05:05:36;4.00;;;3.60;;
10063;SDS011;5071;52.360;13.134;2023-07-29T05:10:39;3.85;;;3.42;;
10063;SDS011;5071;52.360;13.134;2023-07-29T05:15:41;4.45;;;4.15;;
10063;SDS011;5071;52.360;13.134;2023-07-29T05:20:43;4.82;;;4.43;;
10063;SDS011;5071;52.360;13.134;2023-07-29T05:25:46;4.10;;;3.80;;
10063;SDS011;5071;52.360;13.134;2023-07-29T05:30:49;5.03;;;4.63;;
10063;SDS011;5071;52.360;13.134;2023-07-29T05:35:50;3.67;;;3.38;;
10063;SDS011;5071;52.360;13.134;2023-07-29T05:40:54;4.53;;;4.10;;
10063;SDS011;5071;52.360;13.134;2023-07-29T05:45:55;4.50;;;4.10;;
10063;SDS011;5071;52.360;13.134;2023-07-29T05:50:57;5.57;;;5.03;;
10063;SDS011;5071;52.360;13.134;2023-07-29T05:56:01;3.83;;;3.53;;
10063;SDS011;5071;52.360;13.134;2023-07-29T06:01:02;3.70;;;3.40;;
10063;SDS011;5071;52.360;13.134;2023-07-29T06:06:04;3.92;;;3.63;;
10063;SDS011;5071;52.360;13.134;2023-07-29T06:11:07;3.33;;;3.03;;
10063;SDS011;5071;52.360;13.134;2023-07-29T06:16:09;3.70;;;3.00;;
10063;SDS011;5071;52.360;13.134;2023-07-29T06:21:11;3.40;;;3.20;;
10063;SDS011;5071;52.360;13.134;2023-07-29T06:26:15;3.33;;;3.08;;
10063;SDS011;5071;52.360;13.134;2023-07-29T06:31:17;3.33;;;3.03;;
10063;SDS011;5071;52.360;13.134;2023-07-29T06:36:19;5.95;;;2.97;;
10063;SDS011;5071;52.360;13.134;2023-07-29T06:41:22;3.85;;;2.88;;
10063;SDS011;5071;52.360;13.134;2023-07-29T06:46:24;2.95;;;2.70;;
10063;SDS011;5071;52.360;13.134;2023-07-29T06:51:26;2.72;;;2.53;;
10063;SDS011;5071;52.360;13.134;2023-07-29T06:56:29;2.60;;;2.40;;
10063;SDS011;5071;52.360;13.134;2023-07-29T07:01:32;2.58;;;2.38;;
10063;SDS011;5071;52.360;13.134;2023-07-29T07:06:34;2.55;;;2.35;;
10063;SDS011;5071;52.360;13.134;2023-07-29T07:11:38;2.67;;;2.42;;
10063;SDS011;5071;52.360;13.134;2023-07-29T07:16:40;1.98;;;1.88;;
10063;SDS011;5071;52.360;13.134;2023-07-29T07:21:43;2.75;;;2.55;;
10063;SDS011;5071;52.360;13.134;2023-07-29T07:26:46;1.88;;;1.70;;
10063;SDS011;5071;52.360;13.134;2023-07-29T07:31:49;2.50;;;2.30;;
10063;SDS011;5071;52.360;13.134;2023-07-29T07:36:53;2.63;;;2.08;;
10063;SDS011;5071;52.360;13.134;2023-07-29T07:41:56;2.70;;;2.50;;
10063;SDS011;5071;52.360;13.134;2023-07-29T07:46:58;2.47;;;2.28;;
10063;SDS011;5071;52.360;13.134;2023-07-29T07:52:02;2.10;;;2.00;;
10063;SDS011;5071;52.360;13.134;2023-07-29T07:57:06;1.85;;;1.70;;
10063;SDS011;5071;52.360;13.134;2023-07-29T08:02:08;3.25;;;1.92;;
10063;SDS011;5071;52.360;13.134;2023-07-29T08:07:10;1.98;;;1.88;;
10063;SDS011;5071;52.360;13.134;2023-07-29T08:12:13;2.10;;;1.90;;
10063;SDS011;5071;52.360;13.134;2023-07-29T08:17:15;1.83;;;1.73;;
10063;SDS011;5071;52.360;13.134;2023-07-29T08:22:17;1.88;;;1.77;;
10063;SDS011;5071;52.360;13.134;2023-07-29T08:27:20;1.75;;;1.65;;
10063;SDS011;5071;52.360;13.134;2023-07-29T08:32:22;1.88;;;1.77;;
10063;SDS011;5071;52.360;13.134;2023-07-29T08:37:23;1.80;;;1.70;;
10063;SDS011;5071;52.360;13.134;2023-07-29T08:42:27;1.58;;;1.48;;
10063;SDS011;5071;52.360;13.134;2023-07-29T08:47:32;1.70;;;1.58;;
10063;SDS011;5071;52.360;13.134;2023-07-29T08:52:34;1.65;;;1.55;;
10063;SDS011;5071;52.360;13.134;2023-07-29T08:57:39;1.60;;;1.50;;
10063;SDS011;5071;52.360;13.134;2023-07-29T09:02:40;1.83;;;1.73;;
10063;SDS011;5071;52.360;13.134;2023-07-29T09:07:42;1.77;;;1.67;;
10063;SDS011;5071;52.360;13.134;2023-07-29T09:12:48;2.38;;;1.95;;
10063;SDS011;5071;52.360;13.134;2023-07-29T09:17:50;1.90;;;1.80;;
10063;SDS011;5071;52.360;13.134;2023-07-29T09:22:53;1.73;;;1.63;;
10063;SDS011;5071;52.360;13.134;2023-07-29T09:27:59;2.35;;;1.65;;
10063;SDS011;5071;52.360;13.134;2023-07-29T09:33:01;1.90;;;1.80;;
10063;SDS011;5071;52.360;13.134;2023-07-29T09:38:03;3.13;;;1.80;;
10063;SDS011;5071;52.360;13.134;2023-07-29T09:43:09;1.55;;;1.45;;
10063;SDS011;5071;52.360;13.134;2023-07-29T09:48:11;1.75;;;1.65;;
10063;SDS011;5071;52.360;13.134;2023-07-29T09:53:13;2.35;;;1.90;;
10063;SDS011;5071;52.360;13.134;2023-07-29T09:58:17;1.83;;;1.67;;
10063;SDS011;5071;52.360;13.134;2023-07-29T10:03:21;1.90;;;1.77;;
10063;SDS011;5071;52.360;13.134;2023-07-29T10:08:23;1.80;;;1.70;;
10063;SDS011;5071;52.360;13.134;2023-07-29T10:13:28;1.65;;;1.50;;
10063;SDS011;5071;52.360;13.134;2023-07-29T10:18:30;1.77;;;1.67;;
10063;SDS011;5071;52.360;13.134;2023-07-29T10:23:36;1.60;;;1.50;;
10063;SDS011;5071;52.360;13.134;2023-07-29T10:28:46;2.42;;;1.60;;
10063;SDS011;5071;52.360;13.134;2023-07-29T10:33:49;2.10;;;1.40;;
10063;SDS011;5071;52.360;13.134;2023-07-29T10:38:51;2.45;;;1.60;;
10063;SDS011;5071;52.360;13.134;2023-07-29T10:43:55;2.03;;;1.60;;
10063;SDS011;5071;52.360;13.134;2023-07-29T10:48:57;3.38;;;2.25;;
10063;SDS011;5071;52.360;13.134;2023-07-29T10:54:00;9.75;;;3.40;;
10063;SDS011;5071;52.360;13.134;2023-07-29T10:59:22;5.28;;;2.80;;
10063;SDS011;5071;52.360;13.134;2023-07-29T11:04:45;3.25;;;2.95;;
10063;SDS011;5071;52.360;13.134;2023-07-29T11:09:51;3.22;;;2.83;;
10063;SDS011;5071;52.360;13.134;2023-07-29T11:14:58;7.25;;;2.72;;
10063;SDS011;5071;52.360;13.134;2023-07-29T11:20:05;2.97;;;2.60;;
10063;SDS011;5071;52.360;13.134;2023-07-29T11:25:08;3.38;;;2.33;;
10063;SDS011;5071;52.360;13.134;2023-07-29T11:30:14;2.75;;;2.55;;
10063;SDS011;5071;52.360;13.134;2023-07-29T11:35:17;2.85;;;2.45;;
10063;SDS011;5071;52.360;13.134;2023-07-29T11:40:20;2.63;;;2.42;;
10063;SDS011;5071;52.360;13.134;2023-07-29T11:45:24;4.55;;;2.58;;
10063;SDS011;5071;52.360;13.134;2023-07-29T11:50:36;3.47;;;2.55;;
10063;SDS011;5071;52.360;13.134;2023-07-29T11:55:38;2.72;;;2.50;;
10063;SDS011;5071;52.360;13.134;2023-07-29T12:00:41;4.05;;;3.00;;
10063;SDS011;5071;52.360;13.134;2023-07-29T12:05:43;4.40;;;3.67;;
10063;SDS011;5071;52.360;13.134;2023-07-29T12:10:46;1.90;;;1.20;;
10063;SDS011;5071;52.360;13.134;2023-07-29T12:15:49;1.77;;;1.15;;
10063;SDS011;5071;52.360;13.134;2023-07-29T12:20:55;1.20;;;1.10;;
10063;SDS011;5071;52.360;13.134;2023-07-29T12:25:57;2.05;;;1.08;;
10063;SDS011;5071;52.360;13.134;2023-07-29T12:31:01;1.48;;;1.00;;
10063;SDS011;5071;52.360;13.134;2023-07-29T12:36:08;1.38;;;0.90;;
10063;SDS011;5071;52.360;13.134;2023-07-29T12:41:10;1.15;;;1.05;;
10063;SDS011;5071;52.360;13.134;2023-07-29T12:46:13;1.73;;;1.30;;
10063;SDS011;5071;52.360;13.134;2023-07-29T12:51:15;1.45;;;1.30;;
10063;SDS011;5071;52.360;13.134;2023-07-29T12:56:17;2.83;;;1.67;;
10063;SDS011;5071;52.360;13.134;2023-07-29T13:01:20;3.42;;;1.60;;
10063;SDS011;5071;52.360;13.134;2023-07-29T13:06:22;1.88;;;1.45;;
10063;SDS011;5071;52.360;13.134;2023-07-29T13:11:24;1.80;;;1.70;;
10063;SDS011;5071;52.360;13.134;2023-07-29T13:16:28;2.17;;;1.52;;
10063;SDS011;5071;52.360;13.134;2023-07-29T13:21:30;1.80;;;1.42;;
10063;SDS011;5071;52.360;13.134;2023-07-29T13:26:32;1.42;;;1.33;;
10063;SDS011;5071;52.360;13.134;2023-07-29T13:31:35;1.63;;;1.38;;
10063;SDS011;5071;52.360;13.134;2023-07-29T13:36:38;1.40;;;1.30;;
10063;SDS011;5071;52.360;13.134;2023-07-29T13:41:40;1.85;;;1.20;;
10063;SDS011;5071;52.360;13.134;2023-07-29T13:46:43;1.42;;;1.33;;
10063;SDS011;5071;52.360;13.134;2023-07-29T13:51:45;1.25;;;1.13;;
10063;SDS011;5071;52.360;13.134;2023-07-29T13:56:46;1.30;;;1.10;;
10063;SDS011;5071;52.360;13.134;2023-07-29T14:01:50;1.35;;;1.25;;
10063;SDS011;5071;52.360;13.134;2023-07-29T14:06:52;1.38;;;1.10;;
10063;SDS011;5071;52.360;13.134;2023-07-29T14:12:00;3.10;;;1.30;;
10063;SDS011;5071;52.360;13.134;2023-07-29T14:17:03;1.67;;;1.58;;
10063;SDS011;5071;52.360;13.134;2023-07-29T14:22:05;1.85;;;1.20;;
10063;SDS011;5071;52.360;13.134;2023-07-29T14:27:07;1.83;;;1.50;;
10063;SDS011;5071;52.360;13.134;2023-07-29T14:32:11;1.52;;;1.08;;
10063;SDS011;5071;52.360;13.134;2023-07-29T14:37:13;1.30;;;1.20;;
10063;SDS011;5071;52.360;13.134;2023-07-29T14:42:15;1.50;;;1.40;;
10063;SDS011;5071;52.360;13.134;2023-07-29T14:47:18;2.03;;;1.20;;
10063;SDS011;5071;52.360;13.134;2023-07-29T14:52:20;1.38;;;1.27;;
10063;SDS011;5071;52.360;13.134;2023-07-29T14:57:21;1.58;;;1.15;;
10063;SDS011;5071;52.360;13.134;2023-07-29T15:02:25;1.48;;;1.20;;
10063;SDS011;5071;52.360;13.134;2023-07-29T15:07:27;1.50;;;1.38;;
10063;SDS011;5071;52.360;13.134;2023-07-29T15:12:29;1.40;;;1.30;;
10063;SDS011;5071;52.360;13.134;2023-07-29T15:17:32;2.25;;;1.20;;
10063;SDS011;5071;52.360;13.134;2023-07-29T15:22:35;1.27;;;1.17;;
10063;SDS011;5071;52.360;13.134;2023-07-29T15:27:37;1.88;;;1.00;;
10063;SDS011;5071;52.360;13.134;2023-07-29T15:32:40;2.50;;;1.43;;
10063;SDS011;5071;52.360;13.134;2023-07-29T15:37:42;4.30;;;2.00;;
10063;SDS011;5071;52.360;13.134;2023-07-29T15:42:44;3.57;;;2.20;;
10063;SDS011;5071;52.360;13.134;2023-07-29T15:47:48;3.17;;;2.20;;
10063;SDS011;5071;52.360;13.134;2023-07-29T15:52:50;4.90;;;2.77;;
10063;SDS011;5071;52.360;13.134;2023-07-29T15:57:53;2.92;;;1.73;;
10063;SDS011;5071;52.360;13.134;2023-07-29T16:02:56;3.60;;;1.50;;
10063;SDS011;5071;52.360;13.134;2023-07-29T16:07:58;2.47;;;1.50;;
10063;SDS011;5071;52.360;13.134;2023-07-29T16:13:00;2.78;;;2.05;;
10063;SDS011;5071;52.360;13.134;2023-07-29T16:18:03;4.88;;;2.05;;
10063;SDS011;5071;52.360;13.134;2023-07-29T16:23:05;2.47;;;1.60;;
10063;SDS011;5071;52.360;13.134;2023-07-29T16:28:10;2.25;;;1.70;;
10063;SDS011;5071;52.360;13.134;2023-07-29T16:33:14;3.72;;;2.30;;
10063;SDS011;5071;52.360;13.134;2023-07-29T16:38:16;2.97;;;1.67;;
10063;SDS011;5071;52.360;13.134;2023-07-29T16:43:18;2.30;;;1.80;;
10063;SDS011;5071;52.360;13.134;2023-07-29T16:48:22;3.45;;;2.25;;
10063;SDS011;5071;52.360;13.134;2023-07-29T16:53:24;3.20;;;1.80;;
10063;SDS011;5071;52.360;13.134;2023-07-29T16:58:26;7.70;;;6.18;;
10063;SDS011;5071;52.360;13.134;2023-07-29T17:03:30;1.83;;;1.73;;
10063;SDS011;5071;52.360;13.134;2023-07-29T17:08:32;6.05;;;5.18;;
10063;SDS011;5071;52.360;13.134;2023-07-29T17:13:33;4.60;;;3.67;;
10063;SDS011;5071;52.360;13.134;2023-07-29T17:18:37;2.28;;;2.08;;
10063;SDS011;5071;52.360;13.134;2023-07-29T17:23:42;5.55;;;4.57;;
10063;SDS011;5071;52.360;13.134;2023-07-29T17:28:43;5.03;;;4.55;;
10063;SDS011;5071;52.360;13.134;2023-07-29T17:33:47;2.20;;;2.00;;
10063;SDS011;5071;52.360;13.134;2023-07-29T17:38:48;10.25;;;6.63;;
10063;SDS011;5071;52.360;13.134;2023-07-29T17:43:50;2.00;;;1.80;;
10063;SDS011;5071;52.360;13.134;2023-07-29T17:48:53;4.65;;;3.58;;
10063;SDS011;5071;52.360;13.134;2023-07-29T17:53:56;2.33;;;2.13;;
10063;SDS011;5071;52.360;13.134;2023-07-29T17:58:58;3.45;;;2.05;;
10063;SDS011;5071;52.360;13.134;2023-07-29T18:04:01;2.70;;;1.75;;
10063;SDS011;5071;52.360;13.134;2023-07-29T18:09:03;2.75;;;1.95;;
10063;SDS011;5071;52.360;13.134;2023-07-29T18:14:05;2.80;;;2.17;;
10063;SDS011;5071;52.360;13.134;2023-07-29T18:19:09;3.42;;;2.05;;
10063;SDS011;5071;52.360;13.134;2023-07-29T18:24:11;2.17;;;1.98;;
10063;SDS011;5071;52.360;13.134;2023-07-29T18:29:13;2.90;;;2.30;;
10063;SDS011;5071;52.360;13.134;2023-07-29T18:34:16;3.92;;;3.00;;
10063;SDS011;5071;52.360;13.134;2023-07-29T18:39:18;3.00;;;2.80;;
10063;SDS011;5071;52.360;13.134;2023-07-29T18:44:20;3.20;;;3.00;;
10063;SDS011;5071;52.360;13.134;2023-07-29T18:49:24;3.78;;;2.90;;
10063;SDS011;5071;52.360;13.134;2023-07-29T18:54:26;3.85;;;3.53;;
10063;SDS011;5071;52.360;13.134;2023-07-29T18:59:28;4.07;;;3.77;;
10063;SDS011;5071;52.360;13.134;2023-07-29T19:04:32;6.07;;;4.30;;
10063;SDS011;5071;52.360;13.134;2023-07-29T19:09:34;4.40;;;4.00;;
10063;SDS011;5071;52.360;13.134;2023-07-29T19:14:36;4.43;;;4.03;;
10063;SDS011;5071;52.360;13.134;2023-07-29T19:19:39;5.87;;;4.90;;
10063;SDS011;5071;52.360;13.134;2023-07-29T19:24:41;4.77;;;4.37;;
10063;SDS011;5071;52.360;13.134;2023-07-29T19:29:43;5.87;;;5.27;;
10063;SDS011;5071;52.360;13.134;2023-07-29T19:34:46;9.20;;;6.17;;
10063;SDS011;5071;52.360;13.134;2023-07-29T19:39:48;5.77;;;5.23;;
10063;SDS011;5071;52.360;13.134;2023-07-29T19:44:49;5.80;;;5.30;;
10063;SDS011;5071;52.360;13.134;2023-07-29T19:49:53;5.83;;;5.30;;
10063;SDS011;5071;52.360;13.134;2023-07-29T19:54:55;8.10;;;6.20;;
10063;SDS011;5071;52.360;13.134;2023-07-29T19:59:57;7.67;;;5.73;;
10063;SDS011;5071;52.360;13.134;2023-07-29T20:05:00;6.27;;;5.67;;
10063;SDS011;5071;52.360;13.134;2023-07-29T20:10:02;5.43;;;4.93;;
10063;SDS011;5071;52.360;13.134;2023-07-29T20:15:05;7.60;;;5.73;;
10063;SDS011;5071;52.360;13.134;2023-07-29T20:20:09;5.90;;;5.40;;
10063;SDS011;5071;52.360;13.134;2023-07-29T20:25:11;7.03;;;6.33;;
10063;SDS011;5071;52.360;13.134;2023-07-29T20:30:13;7.73;;;7.03;;
10063;SDS011;5071;52.360;13.134;2023-07-29T20:35:16;6.90;;;6.30;;
10063;SDS011;5071;52.360;13.134;2023-07-29T20:40:18;7.53;;;6.90;;
10063;SDS011;5071;52.360;13.134;2023-07-29T20:45:20;8.47;;;7.67;;
10063;SDS011;5071;52.360;13.134;2023-07-29T20:50:24;7.33;;;6.63;;
10063;SDS011;5071;52.360;13.134;2023-07-29T20:55:27;8.60;;;7.73;;
10063;SDS011;5071;52.360;13.134;2023-07-29T21:00:29;9.57;;;8.67;;
10063;SDS011;5071;52.360;13.134;2023-07-29T21:05:33;8.50;;;7.67;;
10063;SDS011;5071;52.360;13.134;2023-07-29T21:10:36;8.17;;;7.47;;
10063;SDS011;5071;52.360;13.134;2023-07-29T21:15:38;9.77;;;8.77;;
10063;SDS011;5071;52.360;13.134;2023-07-29T21:20:41;8.83;;;8.03;;
10063;SDS011;5071;52.360;13.134;2023-07-29T21:25:44;8.50;;;7.60;;
10063;SDS011;5071;52.360;13.134;2023-07-29T21:30:47;7.70;;;6.83;;
10063;SDS011;5071;52.360;13.134;2023-07-29T21:35:50;9.00;;;8.20;;
10063;SDS011;5071;52.360;13.134;2023-07-29T21:40:52;8.17;;;7.23;;
10063;SDS011;5071;52.360;13.134;2023-07-29T21:45:54;8.47;;;7.67;;
10063;SDS011;5071;52.360;13.134;2023-07-29T21:50:58;8.50;;;7.77;;
10063;SDS011;5071;52.360;13.134;2023-07-29T21:56:00;8.13;;;7.33;;
10063;SDS011;5071;52.360;13.134;2023-07-29T22:01:02;8.30;;;7.43;;
10063;SDS011;5071;52.360;13.134;2023-07-29T22:06:06;7.83;;;7.10;;
10063;SDS011;5071;52.360;13.134;2023-07-29T22:11:08;8.37;;;7.57;;
10063;SDS011;5071;52.360;13.134;2023-07-29T22:16:10;8.27;;;7.47;;
10063;SDS011;5071;52.360;13.134;2023-07-29T22:21:13;8.60;;;7.70;;
10063;SDS011;5071;52.360;13.134;2023-07-29T22:26:16;7.50;;;6.90;;
10063;SDS011;5071;52.360;13.134;2023-07-29T22:31:18;6.70;;;6.10;;
10063;SDS011;5071;52.360;13.134;2023-07-29T22:36:21;6.97;;;6.27;;
10063;SDS011;5071;52.360;13.134;2023-07-29T22:41:24;6.70;;;6.10;;
10063;SDS011;5071;52.360;13.134;2023-07-29T22:46:26;6.93;;;6.33;;
10063;SDS011;5071;52.360;13.134;2023-07-29T22:51:30;11.00;;;7.23;;
10063;SDS011;5071;52.360;13.134;2023-07-29T22:56:32;6.00;;;5.50;;
10063;SDS011;5071;52.360;13.134;2023-07-29T23:01:34;6.93;;;6.20;;
10063;SDS011;5071;52.360;13.134;2023-07-29T23:06:38;5.97;;;5.47;;
10063;SDS011;5071;52.360;13.134;2023-07-29T23:11:40;6.83;;;5.67;;
10063;SDS011;5071;52.360;13.134;2023-07-29T23:16:42;6.07;;;5.57;;
10063;SDS011;5071;52.360;13.134;2023-07-29T23:21:46;7.37;;;6.67;;
10063;SDS011;5071;52.360;13.134;2023-07-29T23:26:48;6.63;;;6.03;;
10063;SDS011;5071;52.360;13.134;2023-07-29T23:31:52;7.50;;;5.90;;
10063;SDS011;5071;52.360;13.134;2023-07-29T23:36:56;6.30;;;5.80;;
10063;SDS011;5071;52.360;13.134;2023-07-29T23:41:58;6.70;;;6.10;;
10063;SDS011;5071;52.360;13.134;2023-07-29T23:47:00;6.30;;;5.80;;
10063;SDS011;5071;52.360;13.134;2023-07-29T23:52:04;6.87;;;6.37;;
10063;SDS011;5071;52.360;13.134;2023-07-29T23:57:07;6.70;;;6.13;;
